Hang Gliding World Championship 2015

2015-02-28 to 2015-03-13

Overall T2

2015-03-03 T2

Race to Goal 114.9 km

official

No Leg Dist. Id Radius Open Close Coordinates Altitude
1 0.0 km D01235 1 m 12:30 14:30 Lat: 19.062000 Lon: -100.090500 m
2 SS 3.3 km A07216 38000 m 13:45 18:00 Lat: 19.319500 Lon: -100.279833 m
3 15.0 km B05262 400 m 13:45 18:00 Lat: 19.121333 Lon: -100.146333 m
4 29.3 km B02123 400 m 13:45 18:00 Lat: 19.053667 Lon: -100.268500 m
5 69.0 km B10337 1000 m 13:45 18:00 Lat: 19.201500 Lon: -99.913000 m
6 85.8 km B14274 400 m 13:45 18:00 Lat: 19.348333 Lon: -99.984500 m
7 ES 113.9 km A02220 2000 m 13:45 18:00 Lat: 19.087667 Lon: -100.073000 m
8 114.9 km A02220 1000 m 13:45 18:00 Lat: 19.087667 Lon: -100.073000 m
StartGate(s): 13:45

# Id Name Nat Glider Sponsor SS ES Time km/h Distance Dist.
Points
Lead.
Points
Time
Points
Arr.
Pos.
Points
Total
1 167 Boisselier ANTOINE M FRA Icaro 2000 Laminar Icaro Skyline 13:45:00 16:21:46 02:36:46 42.3 114.90 604.6 69.2 276.8 49.4 1000
2 47 Pedro L GARCIA M ESP Wills Wing T2C Wills Wing - Juaki Air 13:45:00 16:22:11 02:37:11 42.2 114.90 604.6 65.4 269.5 44.5 984
3 156 Suan SELENATI M ITA Wills Wing T2C FRIULI VENEZIA GIULIA/WOODY VALLEY/W W 13:45:00 16:40:19 02:55:19 37.9 114.90 604.6 49.3 184.9 40.0 879
4 198 Attila BERTOK M HUN Moyes Litespeed RX 3.5 Moyes Delta Gliders 13:45:00 16:42:01 02:57:01 37.5 114.90 604.6 53.1 179.4 35.9 873
5 187 Dan VYHNALIK M CZE Aeros Combat 13.5 GT LAA CR 13:45:00 16:42:12 02:57:12 37.5 114.90 604.6 51.2 178.8 32.2 867
6 159 Christian VOIBLET M SUI Aeros Combat C Flytec 13:45:00 16:42:17 02:57:17 37.4 114.90 604.6 53.3 178.5 28.8 865
7 142 Peter NEUENSCHWANDER M SUI Aeros Combat 13.5 AEROS 13:45:00 16:45:56 03:00:56 36.7 114.90 604.6 51.7 167.2 25.9 849
8 189 Petr BENEŠ M CZE Aeros Combat 09 LAA CR 13:45:00 16:46:37 03:01:37 36.6 114.90 604.6 51.2 165.1 23.2 844
9 148 Balazs UJHELYI M HUN Moyes RS 4 no 13:45:00 16:46:40 03:01:40 36.5 114.90 604.6 49.7 165.0 20.9 840
10 119 Steven BLACKLER M GBR Moyes RX 3.5 nil 13:45:00 16:51:43 03:06:43 35.6 114.90 604.6 43.2 150.3 18.9 817
11 171 Zin PIERO M FRA Icaro 2000 Laminar Z9 14.1 no sponsors 13:45:00 16:53:10 03:08:10 35.3 114.90 604.6 45.4 146.3 17.1 813
12 137 Filippo OPPICI M ITA Wills Wing T2C Wills Wing 13:45:00 16:54:00 03:09:00 35.1 114.90 604.6 47.8 144.0 14.3 811
13 10 Rodolfo GOTÉS M MEX Wills Wing T2C Sensual Tea vuelolibre.mx 13:45:00 16:54:48 03:09:48 35.0 114.90 604.6 48.5 141.8 12.4 807
14 133 Akira MUTAZONO M JPN Aeros Combat GT noe 13:45:00 16:54:43 03:09:43 35.0 114.90 604.6 45.7 142.0 13.2 806
15 139 Tullio GERVASONI M ITA Wills Wing T2C GAP 13:45:00 16:54:53 03:09:53 35.0 114.90 604.6 46.6 141.6 11.7 805
16 106 Jonny DURAND M AUS Moyes RX 3.5 Moyes Red Bull Blu Eye 13:45:00 16:53:59 03:08:59 35.1 114.90 604.6 38.3 144.0 15.6 803
17 113 Max TURIACO M BRA Wills Wing T2C Maxflyrio 13:45:00 16:54:57 03:09:57 34.9 114.90 604.6 43.8 141.4 11.1 801
18 101 Robin HAMILTON M USA Moyes RX 3.5 NAA 13:45:00 16:56:13 03:11:13 34.7 114.90 604.6 46.9 138.0 10.4 800
18 114 Glauco PINTO M BRA Icaro 2000 Laminar ABVL/X-WINGS 13:45:00 16:55:00 03:10:00 34.9 114.90 604.6 43.7 141.2 10.7 800
20 70 Bruce BARMAKIAN M USA ? ? NA 13:45:00 17:10:40 03:25:40 32.3 114.90 604.6 42.6 101.4 10.1 759
21 141 Christian CIECH M ITA Icaro 2000 Laminar AeCI/Icaro 2000/Woody Valley 13:45:00 17:11:06 03:26:06 32.2 114.90 604.6 36.8 100.4 10.0 752
22 149 Valentino BAÙ M ITA Icaro 2000 Laminar 14.1 TERMCLIMA DUE CARRERE (PD) 13:45:00 110.48 593.0 44.6 638
23 45 Daniel VELEZ M COL Wills Wing T2C FEDEAEREOS 13:45:00 107.45 582.4 40.3 623
24 182 Jonas LOBITZ M NZL Moyes RS 4 Moyes, Warren Windsports 13:45:00 101.21 560.2 37.8 598
24 105 Zac MAJORS M USA Wills Wing T2C Wills Wing, Flytec 13:45:00 100.68 558.3 39.9 598
26 134 André DJAMARANI M GER Aeros Combat 13.5 GT DHV, Addidas, Skyline, Bräuniger 13:45:00 99.51 553.3 37.0 590
27 147 Fredy BIRCHER M SUI Moyes RX 3.5 SHV 13:45:00 99.06 550.9 38.1 589
27 123 Walter MAYER M AUT Moyes RX4 T-WM 13:45:00 99.17 551.5 37.5 589
29 69 Gerd DÖNHUBER M GER Moyes RX 3.5 Skyline Flightgear 13:45:00 99.09 551.1 35.5 587
30 102 Krzysztof GRZYB M USA Moyes RX 3.5 Moyes, QuestLift, CS LLc 13:45:00 98.12 543.6 32.2 576
31 121 Gordon RIGG M GBR Moyes RX 3.5 Open to Offers 13:45:00 97.11 534.7 37.0 572
32 109 Matt BARKER M USA Wills Wing T2C Wills Wing 13:45:00 97.18 535.4 35.6 571
32 107 Alonzi MARIO M FRA Aeros Combat C ARMEE DE L'AIR 13:45:00 97.26 536.1 35.2 571
34 176 Manfred RUHMER M AUT Icaro 2000 Laminar Icaro2000, Woody Valley, Bräuniger 13:45:00 96.17 524.0 35.6 560
35 71 Achim VOLLMER M GER Aeros Combat 12.7 GT 13:45:00 96.46 527.3 31.8 559
36 180 Trent BROWN M AUS Moyes RX 3.5 Moyes Delta Gliders 13:45:00 96.22 524.6 33.4 558
37 183 Glen MCFARLANE M AUS Wills Wing T2C Willswings 13:45:00 92.66 487.2 31.9 519
38 144 Carl WALLBANK M GBR Moyes RX 3.5 Moyes UK 13:45:00 90.48 475.1 31.4 507
39 197 Franz HERRMANN M SUI Aeros Combat Aeros 13:45:00 90.52 475.2 30.8 506
40 39 Erick SALGADO M MEX Moyes Litespeed S 4.5 CASA MADERO 13:45:00 90.50 475.2 29.6 505
40 57 Takashi SUNAMA M JPN Aeros Combat GT - 13:45:00 91.01 477.4 27.7 505
42 174 Steve BLENKINSOP M AUS Moyes Litespeed RX 3.5 Tec Moyes Delta Gliders 13:45:00 90.45 474.8 27.3 502
43 150 Yoshikatsu TONOMURA M JPN Moyes RX3 none 13:45:00 90.45 474.8 18.5 493
44 131 Shogo OTA M JPN Aeros Combat GT nissei 13:45:00 89.81 468.9 21.2 490
44 193 Günther TSCHURNIG M AUT Icaro 2000 Laminar Z9 Wirth Austria 13:45:00 89.39 464.0 25.7 490
46 169 Dale REGEHR M CAN Moyes RX4 Na 13:45:00 90.16 472.5 16.3 489
46 30 Alexandre MENARD M CAN Wills Wing T2C None 13:45:00 90.17 472.5 16.3 489
48 164 Nils VESK M AUS Moyes RX 3.5 my savings account 13:45:00 88.75 456.1 22.5 479
49 168 Joel MIRÓN DE SOTO M Wills Wing T2C Zenith Aventura 13:45:00 88.59 453.6 19.2 473
50 146 Beat Howald M SUI Aeros Combat 12.7 C ROHN Qualität beim Strom 13:45:00 88.43 450.9 19.4 470
51 140 Bill SODERQUIST M Moyes RS 3.5 Free Flight Parachutes 13:45:00 88.85 457.5 7.2 465
52 117 Fábio THOMAZ M BRA Moyes RX5 www.rooasadelta.com.br 13:45:00 88.70 455.4 8.5 464
53 195 Francoise DIEUZEIDE-BANET F Moyes RX 3.5 no 13:45:00 88.61 454.0 6.8 461
53 122 Roland WOEHRLE M GER Moyes RX 3.5 Sparkasse Haslach/Zell; Skyline 13:45:00 87.63 434.9 25.6 461
55 138 Christian PREININGER M AUT Icaro 2000 Laminar Icaro 2000 13:45:00 89.04 459.9 460
56 135 Reisinger ROBERT M AUT Wills Wing T2C willswing 13:45:00 88.45 451.2 8.1 459
57 151 Davide GUIDUCCI M ITA Wills Wing T2C Woody Walley 13:45:00 87.59 434.0 24.0 458
57 53 Seppi Salvenmoser M AUT Moyes RX 3.5 RED BULL 13:45:00 88.36 449.6 8.3 458
59 177 Guy HUBBARD M AUS Moyes RS 4 Moyes 13:45:00 87.96 441.7 11.0 453
60 166 Alain WOEFFRAY M SUI Wills Wing T2C - 13:45:00 87.12 423.9 17.2 441
61 108 Aldo ROHLFS M MEX Moyes RS 4 AMEX 13:45:00 86.93 419.5 18.8 438
62 160 Derreck TURNER M USA Moyes RX5 Fl Ridge flight park 13:45:00 86.71 414.2 22.8 437
63 152 Elek CZIGLER M HUN Aeros Combat GT ORIAS 13:45:00 86.41 406.5 16.7 423
64 92 Antonio José LETÓN M ESP Aeros Combat GT lc arquitectos 13:45:00 86.50 408.8 9.7 419
65 29 Pedro Alejandro MONTES GENTNER M MEX Aeros Combat GT Colima 13:45:00 86.42 406.7 10.5 417
65 132 Yuji SUZUKI M JPN Moyes RX 3.5 WINDSPORT 13:45:00 86.83 417.2 417
65 93 Alvaro IDÍGORAS MOLINA M ESP Wills Wing T2C 144 Juakiair 13:45:00 86.62 411.9 4.8 417
68 86 Jose Maria IRIARTE M ESP Aeros Combat 12.4 GT españa 13:45:00 86.45 407.6 7.6 415
69 31 David SEGURA M MEX Moyes RX5 no 13:45:00 85.82 389.3 22.7 412
70 136 Grant CROSSINGHAM M GBR Moyes RX 3.5 Luisa Morales Rueda 13:45:00 85.68 385.2 23.5 409
71 9 Gennadiy KHRAMOV M RUS Wills Wing T2C Deus 13:45:00 85.50 380.1 20.3 400
72 40 John THEORET M CAN Wills Wing T2C none 13:45:00 85.77 387.8 6.6 394
73 172 Christian POLLET M FRA Aeros Combat GT No 13:45:00 85.60 382.9 7.7 391
74 68 Joerg BAJEWSKI M GER Wills Wing T2C TIMEZONE, ANSMANN 13:45:00 85.57 382.2 6.7 389
75 80 Francois ISOARD M FRA Wills Wing T2C FFVL 13:45:00 85.01 366.3 20.1 386
76 112 Elmar CHRISTL M LIE Moyes RX4 Christl SpiceTechnologie 13:45:00 84.69 357.4 6.2 364
77 110 Rodrigo (noni) ALVA GOMEZ M MEX Wills Wing T2C VUELOLIBRE.MX 13:45:00 84.27 345.5 16.1 362
78 27 Johnny NILSSEN M NOR Airborne Rev 2 None 13:45:00 82.06 297.7 1.7 299
79 127 Corinna SCHWIEGERSHAUSEN F GER Moyes RX3 Red Bull, adidas, Moyes, Icebreaker, Bräuniger, W 13:45:00 80.22 277.8 278
80 154 Shigeto ISHIZAKA M Wills Wing T2C None 13:45:00 78.30 268.3 268
81 178 Graham PHIPPS M GBR Wills Wing T2C 144 Cloud 9 Hang Gliding & Paragliding 13:45:00 70.18 239.2 239
82 165 Yon BÁRCENA M Wills Wing T2C _ 13:45:00 67.78 230.9 231
83 192 Manuel RIVERO LASCURAIN M Wills Wing T2C None 13:45:00 64.33 216.7 217
84 155 Nobuhiro OKADA M Wills Wing T2 nothing 13:45:00 63.96 215.1 215
85 28 Tormod HELGESEN M NOR Moyes RX4 None 13:45:00 63.82 214.4 214
86 129 Hiroshi ONUMA M JPN Icaro 2000 Laminar ? 13:45:00 43.02 146.8 147
87 191 Vlastimil BARTAS M CZE Aeros Combat GT LAA Czech Republic 13:45:00 29.25 106.3 106
88 91 Daniel MARTÍN MOTA M ESP Wills Wing T2C - 13:45:00 6.28 41.7 42
89 118 Wayne THOMPSON M GBR ? ? Anyone who offers 5.00 37.3 37
89 116 Eduardo OLIVEIRA M BRA Wills Wing T2C Corinthians 5.00 37.3 37
89 158 Eduardo PANUCO M Aeros Combat 13.5 GT SMG 5.00 37.3 37
89 188 Jiri GUT M CZE Wills Wing T2C LAA CR 5.00 37.3 37
89 190 Jesus Maria HERNANDO M ESP Wills Wing T2C NO 5.00 37.3 37
94 48 Claudia MEJIA DE LA PAVA F COL Wills Wing T2C FEDEAEREOS DNF 0.0 0

Pilots absent from task (ABS)

Id Name
79 Laurent THEVENOT

Pilots not yet processed (NYP)

Id Name

Task statistics

param value
ss_distance 110.637
task_distance 114.904
launch_to_ess_distance 113.9
no_of_pilots_present 94
no_of_pilots_flying 93
no_of_pilots_lo 72
no_of_pilots_reaching_nom_dist 80
no_of_pilots_reaching_es 21
no_of_pilots_reaching_goal 21
sum_flown_distance 8168.386
best_dist 114.904
best_time 2.61277777777778
worst_time 3.435
no_of_pilots_in_competition 95
no_of_pilots_landed_before_stop 0
sum_dist_over_min 7721.79
sum_real_dist_over_min 7721.79
sum_flown_distances 8168.386
best_real_dist 114.904
last_start_time 2015-03-03T13:45:00-06:00
first_start_time 2015-03-03T13:45:00-06:00
first_finish_time 2015-03-03T16:21:46-06:00
max_time_to_get_time_points 4.22918669193836
no_of_pilots_with_time_points 21
goalratio 0.225806451612903
arrival_weight 0.0494228500218187
departure_weight 0
leading_weight 0.0691919900305461
time_weight 0.276767960122185
distance_weight 0.604617199825451
smallest_leading_coefficient 2.56687610451192
available_points_distance 604.617199825451
available_points_time 276.767960122185
available_points_departure 0
available_points_leading 69.1919900305461
available_points_arrival 49.4228500218187
time_validity 1
launch_validity 1
distance_validity 1
stop_validity 1
day_quality 1
ftv_day_validity 1
time_points_stop_correction 0

Scoring formula settings

param value
id GAP2014
min_dist 5
nom_dist 75
nom_time 2
nom_launch 0.96
nom_goal 0.25
bonus_gr 5
jump_the_gun_factor 3
jump_the_gun_max 900
normalize_1000_before_day_quality 0
time_points_if_not_in_goal 0
use_1000_points_for_max_day_quality 0
use_arrival_position_points 1
use_arrival_time_points 0
use_departure_points 0
use_difficulty_for_distance_points 1
use_distance_points 1
use_distance_squared_for_LC 0
use_leading_points 1
use_semi_circle_control_zone_for_goal_line 0
use_time_points 1
min_time_span_for_valid_task 90
score_back_time 0
use_arrival_altitude_points 0
final_glide_decelerator none
no_final_glide_decelerator_reason NA
Report created: 2015-03-06T10:55:01-06:00